createdAt,value
2018-07-28T00:01:12.178Z,57.00
2018-07-28T00:03:48.643Z,56.90
2018-07-28T00:06:25.035Z,56.70
2018-07-28T00:09:01.491Z,57.00
2018-07-28T00:11:37.862Z,57.20
2018-07-28T00:14:14.206Z,57.40
2018-07-28T00:16:50.491Z,58.10
2018-07-28T00:19:26.891Z,57.30
2018-07-28T00:22:03.307Z,58.00
2018-07-28T00:24:39.688Z,58.20
2018-07-28T00:27:15.959Z,58.20
2018-07-28T00:29:52.283Z,58.00
2018-07-28T00:32:28.640Z,58.20
2018-07-28T00:35:05.183Z,58.40
2018-07-28T00:37:41.561Z,58.50
2018-07-28T00:40:17.912Z,58.60
2018-07-28T00:42:54.115Z,58.30
2018-07-28T00:45:30.719Z,58.30
2018-07-28T00:48:06.972Z,58.80
2018-07-28T00:50:43.260Z,58.90
2018-07-28T00:53:19.615Z,58.80
2018-07-28T00:55:55.920Z,59.50
2018-07-28T00:58:32.251Z,59.50
2018-07-28T01:01:08.587Z,59.10
2018-07-28T01:03:44.873Z,59.60
2018-07-28T01:06:21.734Z,59.40
2018-07-28T01:08:58.151Z,59.40
2018-07-28T01:11:34.599Z,61.00
2018-07-28T01:14:10.812Z,60.60
2018-07-28T01:16:47.241Z,61.40
2018-07-28T01:19:23.623Z,60.50
2018-07-28T01:22:00.219Z,60.40
2018-07-28T01:24:36.469Z,60.40
2018-07-28T01:27:12.640Z,59.60
2018-07-28T01:29:48.933Z,59.30
2018-07-28T01:32:25.216Z,59.50
2018-07-28T01:35:01.539Z,59.70
2018-07-28T01:37:37.815Z,59.60
2018-07-28T01:40:14.104Z,60.10
2018-07-28T01:42:50.487Z,60.20
2018-07-28T01:45:26.751Z,60.00
2018-07-28T01:48:03.209Z,60.20
2018-07-28T01:50:39.539Z,60.50
2018-07-28T01:53:15.868Z,60.90
2018-07-28T01:55:52.326Z,61.00
2018-07-28T01:58:28.612Z,61.90
2018-07-28T02:01:05.001Z,63.10
2018-07-28T02:03:41.324Z,62.00
2018-07-28T02:06:17.575Z,62.40
2018-07-28T02:08:54.023Z,62.50
2018-07-28T02:11:30.484Z,62.10
2018-07-28T02:14:06.848Z,62.30
2018-07-28T02:16:43.323Z,62.20
2018-07-28T02:19:19.774Z,62.10
2018-07-28T02:21:56.164Z,61.30
2018-07-28T02:24:32.620Z,60.80
2018-07-28T02:27:09.006Z,61.30
2018-07-28T02:29:45.350Z,61.10
2018-07-28T02:32:21.649Z,61.20
2018-07-28T02:34:58.007Z,61.50
2018-07-28T02:37:34.324Z,61.80
2018-07-28T02:40:10.508Z,61.90
2018-07-28T02:42:46.773Z,62.00
2018-07-28T02:45:23.214Z,61.70
2018-07-28T02:47:59.645Z,62.40
2018-07-28T02:50:36.035Z,62.60
2018-07-28T02:53:12.346Z,63.40
2018-07-28T02:55:48.700Z,63.20
2018-07-28T02:58:24.963Z,63.90
2018-07-28T03:01:01.243Z,64.30
2018-07-28T03:03:37.895Z,63.90
2018-07-28T03:06:14.149Z,63.80
2018-07-28T03:08:50.521Z,64.20
2018-07-28T03:11:26.837Z,64.50
2018-07-28T03:14:03.139Z,64.60
2018-07-28T03:16:39.459Z,64.60
2018-07-28T03:19:15.865Z,64.40
2018-07-28T03:21:52.229Z,65.00
2018-07-28T03:24:28.499Z,65.00
2018-07-28T03:27:05.233Z,66.20
2018-07-28T03:29:41.589Z,65.20
2018-07-28T03:32:17.915Z,64.80
2018-07-28T03:34:54.143Z,65.20
2018-07-28T03:37:30.501Z,65.90
2018-07-28T03:40:06.993Z,65.70
2018-07-28T03:42:43.575Z,65.70
2018-07-28T03:45:19.794Z,66.30
2018-07-28T03:47:55.964Z,66.50
2018-07-28T03:50:32.345Z,66.40
2018-07-28T03:53:08.606Z,67.50
2018-07-28T03:55:45.028Z,67.30
2018-07-28T03:58:21.482Z,67.10
2018-07-28T04:00:57.965Z,67.00
2018-07-28T04:03:34.318Z,67.00
2018-07-28T04:06:10.619Z,67.00
2018-07-28T04:08:46.975Z,67.90
2018-07-28T04:11:23.372Z,68.40
2018-07-28T04:13:59.727Z,68.00
2018-07-28T04:16:36.215Z,68.70
2018-07-28T04:19:12.465Z,68.90
2018-07-28T04:21:48.747Z,68.70
2018-07-28T04:24:25.159Z,68.80
2018-07-28T04:27:01.605Z,68.50
2018-07-28T04:29:38.120Z,68.90
2018-07-28T04:32:14.379Z,68.40
2018-07-28T04:34:50.827Z,69.30
2018-07-28T04:37:26.994Z,68.60
2018-07-28T04:40:03.317Z,69.30
2018-07-28T04:42:39.968Z,69.60
2018-07-28T04:45:16.191Z,69.80
2018-07-28T04:47:52.494Z,69.60
2018-07-28T04:50:28.984Z,69.60
2018-07-28T04:53:05.309Z,69.70
2018-07-28T04:55:41.622Z,67.60
2018-07-28T04:58:17.856Z,67.80
2018-07-28T05:00:55.539Z,68.00
2018-07-28T05:03:32.103Z,67.50
2018-07-28T05:06:08.794Z,68.30
2018-07-28T05:08:44.999Z,68.60
2018-07-28T05:11:21.337Z,68.40
2018-07-28T05:13:57.687Z,69.30
2018-07-28T05:16:34.076Z,68.40
2018-07-28T05:19:10.483Z,68.20
2018-07-28T05:21:46.927Z,67.90
2018-07-28T05:24:23.268Z,67.70
2018-07-28T05:26:59.747Z,67.30
2018-07-28T05:29:36.849Z,67.10
2018-07-28T05:32:13.004Z,65.80
2018-07-28T05:34:49.325Z,65.10
2018-07-28T05:37:25.598Z,65.10
2018-07-28T05:40:02.196Z,64.30
2018-07-28T05:42:38.440Z,64.60
2018-07-28T05:45:14.776Z,63.20
2018-07-28T05:47:51.072Z,61.90
2018-07-28T05:50:27.476Z,59.50
2018-07-28T05:53:03.901Z,57.90
2018-07-28T05:55:40.233Z,56.30
2018-07-28T05:58:16.439Z,54.80
2018-07-28T06:00:52.849Z,54.30
2018-07-28T06:03:29.314Z,53.50
2018-07-28T06:06:05.938Z,53.20
2018-07-28T06:08:42.167Z,52.90
2018-07-28T06:11:18.377Z,52.60
2018-07-28T06:13:54.816Z,52.00
2018-07-28T06:16:31.126Z,51.00
2018-07-28T06:19:07.456Z,50.40
2018-07-28T06:21:43.754Z,50.00
2018-07-28T06:24:20.009Z,51.10
2018-07-28T06:26:56.380Z,50.20
2018-07-28T06:29:32.745Z,50.80
2018-07-28T06:32:10.800Z,49.70
2018-07-28T06:34:47.024Z,49.50
2018-07-28T06:37:23.383Z,49.20
2018-07-28T06:39:59.960Z,48.70
2018-07-28T06:42:36.542Z,48.00
2018-07-28T06:45:12.764Z,47.40
2018-07-28T06:47:49.247Z,47.60
2018-07-28T06:50:25.745Z,48.10
2018-07-28T06:53:02.595Z,49.00
2018-07-28T06:55:38.983Z,50.20
2018-07-28T06:58:15.385Z,50.70
2018-07-28T07:00:51.735Z,50.40
2018-07-28T07:03:28.204Z,51.60
2018-07-28T07:06:05.335Z,50.10
2018-07-28T07:08:41.906Z,50.10
2018-07-28T07:11:18.247Z,50.40
2018-07-28T07:13:54.559Z,53.10
2018-07-28T07:16:31.001Z,52.50
2018-07-28T07:19:07.465Z,54.00
2018-07-28T07:21:46.332Z,54.20
2018-07-28T07:24:22.592Z,54.20
2018-07-28T07:26:59.225Z,53.40
2018-07-28T07:29:35.716Z,54.00
2018-07-28T07:32:12.089Z,53.80
2018-07-28T07:34:48.341Z,52.60
2018-07-28T07:37:24.711Z,52.60
2018-07-28T07:40:01.168Z,53.50
2018-07-28T07:42:37.443Z,54.00
2018-07-28T07:45:13.807Z,55.00
2018-07-28T07:47:50.165Z,54.80
2018-07-28T07:50:26.564Z,55.30
2018-07-28T07:53:02.906Z,54.30
2018-07-28T07:55:39.137Z,53.70
2018-07-28T07:58:15.555Z,55.10
2018-07-28T08:00:52.400Z,55.90
2018-07-28T08:03:28.683Z,55.80
2018-07-28T08:06:05.203Z,58.00
2018-07-28T08:08:41.877Z,57.10
2018-07-28T08:11:18.283Z,58.60
2018-07-28T08:13:54.641Z,59.50
2018-07-28T08:16:31.265Z,50.20
2018-07-28T08:19:07.560Z,51.50
2018-07-28T08:21:43.759Z,65.80
2018-07-28T08:24:20.088Z,71.70
2018-07-28T08:26:56.578Z,67.30
2018-07-28T08:29:32.959Z,65.60
2018-07-28T08:32:09.330Z,63.90
2018-07-28T08:34:45.575Z,63.30
2018-07-28T08:37:21.791Z,63.10
2018-07-28T08:39:58.365Z,61.50
2018-07-28T08:42:34.646Z,60.80
2018-07-28T08:45:10.914Z,61.30
2018-07-28T08:47:47.353Z,61.80
2018-07-28T08:50:23.893Z,61.00
2018-07-28T08:53:00.260Z,62.40
2018-07-28T08:55:36.612Z,64.20
2018-07-28T08:58:13.149Z,64.60
2018-07-28T09:00:49.495Z,64.50
2018-07-28T09:03:25.821Z,64.70
2018-07-28T09:06:02.732Z,67.30
2018-07-28T09:08:39.005Z,69.20
2018-07-28T09:11:15.518Z,69.90
2018-07-28T09:13:51.785Z,68.60
2018-07-28T09:16:28.336Z,73.80
2018-07-28T09:19:04.727Z,72.50
2018-07-28T09:21:41.300Z,73.70
2018-07-28T09:24:17.544Z,75.40
2018-07-28T09:26:53.976Z,75.10
2018-07-28T09:29:30.537Z,75.70
2018-07-28T09:32:08.263Z,75.90
2018-07-28T09:34:44.711Z,76.30
2018-07-28T09:37:20.872Z,74.10
2018-07-28T09:39:57.316Z,74.40
2018-07-28T09:42:34.116Z,73.10
2018-07-28T09:45:10.358Z,72.70
2018-07-28T09:47:46.732Z,73.20
2018-07-28T09:50:23.136Z,72.00
2018-07-28T09:52:59.829Z,72.80
2018-07-28T09:55:36.076Z,72.40
2018-07-28T09:58:12.282Z,76.00
2018-07-28T10:00:53.939Z,74.70
2018-07-28T10:03:30.453Z,72.20
2018-07-28T10:06:06.815Z,72.30
2018-07-28T10:08:43.015Z,72.40
2018-07-28T10:11:19.374Z,71.40
2018-07-28T10:13:55.729Z,73.70
2018-07-28T10:16:32.116Z,70.80
2018-07-28T10:19:08.502Z,68.50
2018-07-28T10:21:44.899Z,54.00
2018-07-28T10:24:21.243Z,48.60
2018-07-28T10:26:57.645Z,45.70
2018-07-28T10:29:34.026Z,44.50
2018-07-28T10:32:10.398Z,42.20
2018-07-28T10:34:46.819Z,41.70
2018-07-28T10:37:23.117Z,41.30
2018-07-28T10:39:59.781Z,41.30
2018-07-28T10:42:36.747Z,40.30
2018-07-28T10:45:13.038Z,39.70
2018-07-28T10:47:49.466Z,38.40
2018-07-28T10:50:25.866Z,38.30
2018-07-28T10:53:02.365Z,38.70
2018-07-28T10:58:14.703Z,38.10
2018-07-28T11:00:50.931Z,39.50
2018-07-28T11:03:27.161Z,41.10
2018-07-28T11:06:03.790Z,41.80
2018-07-28T11:08:40.120Z,41.70
2018-07-28T11:11:16.356Z,41.30
2018-07-28T11:13:52.755Z,42.90
2018-07-28T11:16:29.652Z,42.60
2018-07-28T11:19:06.135Z,42.20
2018-07-28T11:21:42.465Z,40.50
2018-07-28T11:24:20.141Z,41.40
2018-07-28T11:26:56.525Z,40.00
2018-07-28T11:29:33.067Z,41.00
2018-07-28T11:32:26.401Z,41.50
2018-07-28T11:35:19.650Z,42.00
2018-07-28T11:38:14.599Z,42.20
2018-07-28T11:41:08.053Z,44.30
2018-07-28T11:44:01.319Z,43.50
2018-07-28T11:46:37.698Z,42.50
2018-07-28T11:49:13.980Z,41.50
2018-07-28T11:51:50.385Z,41.20
2018-07-28T11:54:26.739Z,40.70
2018-07-28T11:57:03.182Z,40.20
2018-07-28T11:59:39.505Z,40.00
2018-07-28T12:02:15.938Z,38.80
2018-07-28T12:04:52.291Z,36.80
2018-07-28T12:07:29.047Z,37.10
2018-07-28T12:10:07.949Z,38.00
2018-07-28T12:12:44.218Z,39.00
2018-07-28T12:15:20.604Z,38.60
2018-07-28T12:17:57.071Z,39.50
2018-07-28T12:20:33.431Z,39.70
2018-07-28T12:23:09.816Z,39.50
2018-07-28T12:25:46.125Z,38.00
2018-07-28T12:28:22.463Z,38.50
2018-07-28T12:30:58.896Z,39.00
2018-07-28T12:33:35.084Z,37.60
2018-07-28T12:36:11.535Z,38.50
2018-07-28T12:38:47.683Z,38.30
2018-07-28T12:41:24.096Z,38.20
2018-07-28T12:44:00.569Z,38.90
2018-07-28T12:46:36.980Z,38.70
2018-07-28T12:49:13.226Z,38.50
2018-07-28T12:51:49.470Z,38.50
2018-07-28T12:54:25.759Z,39.80
2018-07-28T12:57:02.450Z,39.30
2018-07-28T12:59:39.689Z,39.50
2018-07-28T13:02:16.034Z,39.60
2018-07-28T13:04:52.442Z,40.00
2018-07-28T13:07:28.825Z,40.70
2018-07-28T13:10:06.298Z,39.50
2018-07-28T13:12:42.607Z,39.10
2018-07-28T13:15:18.923Z,39.90
2018-07-28T13:17:55.448Z,39.80
2018-07-28T13:20:32.100Z,39.60
2018-07-28T13:23:08.611Z,40.40
2018-07-28T13:25:44.837Z,39.90
2018-07-28T13:28:21.152Z,40.20
2018-07-28T13:30:57.587Z,39.50
2018-07-28T13:33:34.137Z,39.40
2018-07-28T13:36:10.555Z,39.80
2018-07-28T13:38:47.055Z,40.40
2018-07-28T13:41:23.264Z,40.60
2018-07-28T13:43:59.767Z,41.10
2018-07-28T13:46:36.149Z,40.30
2018-07-28T13:49:12.575Z,41.00
2018-07-28T13:51:48.972Z,41.80
2018-07-28T13:54:25.402Z,44.60
2018-07-28T13:57:01.891Z,47.20
2018-07-28T13:59:38.277Z,54.80
2018-07-28T14:02:14.616Z,61.80
2018-07-28T14:04:50.996Z,65.70
2018-07-28T14:07:27.316Z,64.70
2018-07-28T14:10:03.788Z,66.10
2018-07-28T14:12:40.038Z,70.00
2018-07-28T14:15:16.412Z,73.90
2018-07-28T14:20:28.743Z,70.00
2018-07-28T14:23:05.331Z,69.60
2018-07-28T14:25:41.548Z,69.50
2018-07-28T14:28:17.933Z,70.70
2018-07-28T14:30:54.649Z,72.40
2018-07-28T14:33:31.081Z,68.40
2018-07-28T14:36:07.643Z,68.10
2018-07-28T14:38:43.956Z,66.40
2018-07-28T14:41:20.284Z,64.90
2018-07-28T14:43:56.694Z,65.40
2018-07-28T14:46:32.986Z,64.10
2018-07-28T14:49:09.503Z,64.80
2018-07-28T14:51:45.732Z,66.50
2018-07-28T14:54:22.057Z,66.30
2018-07-28T14:56:58.327Z,64.80
2018-07-28T14:59:34.718Z,62.70
2018-07-28T15:02:11.052Z,63.10
2018-07-28T15:04:47.338Z,61.60
2018-07-28T15:07:23.791Z,62.50
2018-07-28T15:10:00.394Z,62.00
2018-07-28T15:12:36.592Z,60.80
2018-07-28T15:15:12.998Z,60.20
2018-07-28T15:17:49.378Z,61.30
2018-07-28T15:20:25.622Z,62.30
2018-07-28T15:23:02.307Z,63.30
2018-07-28T15:25:38.496Z,61.30
2018-07-28T15:28:14.691Z,59.30
2018-07-28T15:30:50.932Z,59.10
2018-07-28T15:33:27.358Z,58.80
2018-07-28T15:36:03.896Z,58.60
2018-07-28T15:38:40.384Z,58.00
2018-07-28T15:41:16.607Z,58.30
2018-07-28T15:43:52.979Z,59.20
2018-07-28T15:46:29.644Z,59.50
2018-07-28T15:49:06.036Z,59.30
2018-07-28T15:51:42.258Z,59.00
2018-07-28T15:54:18.646Z,58.20
2018-07-28T15:56:55.033Z,58.80
2018-07-28T15:59:31.457Z,58.70
2018-07-28T16:02:07.847Z,57.00
2018-07-28T16:04:44.176Z,56.20
2018-07-28T16:07:20.639Z,56.00
2018-07-28T16:09:56.834Z,55.80
2018-07-28T16:12:33.077Z,55.10
2018-07-28T16:17:45.352Z,52.70
2018-07-28T16:20:21.668Z,53.30
2018-07-28T16:22:57.922Z,53.30
2018-07-28T16:25:34.464Z,54.70
2018-07-28T16:28:10.806Z,52.90
2018-07-28T16:30:47.212Z,52.40
2018-07-28T16:33:23.416Z,53.60
2018-07-28T16:36:01.039Z,51.60
2018-07-28T16:38:37.428Z,52.60
2018-07-28T16:41:13.855Z,52.70
2018-07-28T16:43:50.018Z,52.20
2018-07-28T16:46:26.447Z,51.40
2018-07-28T16:49:02.919Z,51.70
2018-07-28T16:51:39.184Z,52.20
2018-07-28T16:54:15.517Z,52.90
2018-07-28T16:56:52.637Z,52.00
2018-07-28T16:59:29.178Z,52.50
2018-07-28T17:02:05.492Z,52.70
2018-07-28T17:04:41.896Z,52.30
2018-07-28T17:07:18.219Z,52.60
2018-07-28T17:09:54.569Z,51.90
2018-07-28T17:12:30.944Z,51.50
2018-07-28T17:15:08.258Z,51.40
2018-07-28T17:17:44.511Z,50.30
2018-07-28T17:20:20.863Z,49.50
2018-07-28T17:22:57.404Z,49.20
2018-07-28T17:25:33.899Z,49.60
2018-07-28T17:28:10.135Z,49.80
2018-07-28T17:30:46.669Z,51.60
2018-07-28T17:33:22.910Z,51.90
2018-07-28T17:35:59.298Z,52.30
2018-07-28T17:38:35.833Z,51.00
2018-07-28T17:41:12.190Z,51.10
2018-07-28T17:43:48.527Z,50.70
2018-07-28T17:46:25.065Z,50.90
2018-07-28T17:49:01.564Z,50.20
2018-07-28T17:51:37.970Z,49.90
2018-07-28T17:54:14.346Z,50.20
2018-07-28T17:56:50.570Z,49.00
2018-07-28T17:59:27.064Z,46.90
2018-07-28T18:02:03.460Z,47.90
2018-07-28T18:04:39.888Z,48.70
2018-07-28T18:07:16.235Z,48.70
2018-07-28T18:09:52.855Z,48.40
2018-07-28T18:12:29.468Z,49.00
2018-07-28T18:15:06.473Z,48.50
2018-07-28T18:17:42.780Z,48.50
2018-07-28T18:20:19.101Z,48.60
2018-07-28T18:22:55.395Z,48.20
2018-07-28T18:25:31.957Z,48.80
2018-07-28T18:28:08.260Z,48.40
2018-07-28T18:30:44.598Z,48.70
2018-07-28T18:33:20.931Z,48.20
2018-07-28T18:35:57.413Z,48.40
2018-07-28T18:38:33.885Z,48.90
2018-07-28T18:41:10.231Z,48.90
2018-07-28T18:43:46.583Z,49.00
2018-07-28T18:46:23.006Z,48.60
2018-07-28T18:48:59.602Z,48.50
2018-07-28T18:51:36.003Z,48.70
2018-07-28T18:54:12.325Z,49.00
2018-07-28T18:56:48.726Z,48.80
2018-07-28T18:59:25.038Z,49.40
2018-07-28T19:02:01.439Z,49.20
2018-07-28T19:04:38.004Z,48.80
2018-07-28T19:07:14.274Z,48.90
2018-07-28T19:09:51.913Z,48.80
2018-07-28T19:12:33.219Z,49.00
2018-07-28T19:15:09.627Z,48.50
2018-07-28T19:17:51.203Z,49.00
2018-07-28T19:20:27.623Z,48.60
2018-07-28T19:23:09.618Z,49.20
2018-07-28T19:25:45.984Z,49.30
2018-07-28T19:28:27.501Z,49.00
2018-07-28T19:31:04.661Z,48.90
2018-07-28T19:33:40.835Z,49.60
2018-07-28T19:36:22.326Z,49.60
2018-07-28T19:38:58.717Z,49.90
2018-07-28T19:43:42.413Z,50.60
2018-07-28T19:46:18.609Z,51.00
2018-07-28T19:48:54.880Z,50.50
2018-07-28T19:51:31.214Z,51.30
2018-07-28T19:54:07.526Z,51.80
2018-07-28T19:56:43.756Z,52.20
2018-07-28T19:59:20.099Z,52.30
2018-07-28T20:01:56.815Z,52.90
2018-07-28T20:04:33.327Z,53.40
2018-07-28T20:07:09.760Z,53.70
2018-07-28T20:09:45.935Z,54.30
2018-07-28T20:12:22.195Z,53.80
2018-07-28T20:14:58.476Z,54.10
2018-07-28T20:17:34.850Z,54.80
2018-07-28T20:20:12.575Z,55.30
2018-07-28T20:22:48.823Z,55.00
2018-07-28T20:25:25.144Z,55.80
2018-07-28T20:28:01.583Z,56.50
2018-07-28T20:30:38.062Z,56.40
2018-07-28T20:33:14.515Z,56.80
2018-07-28T20:35:50.908Z,56.80
2018-07-28T20:38:27.819Z,57.50
2018-07-28T20:41:04.244Z,58.00
2018-07-28T20:43:40.553Z,58.20
2018-07-28T20:46:16.819Z,58.40
2018-07-28T20:48:53.145Z,58.90
2018-07-28T20:51:29.758Z,58.60
2018-07-28T20:54:06.166Z,59.90
2018-07-28T20:56:42.512Z,60.00
2018-07-28T20:59:18.852Z,60.00
2018-07-28T21:01:55.161Z,61.50
2018-07-28T21:04:31.722Z,62.00
2018-07-28T21:07:08.160Z,64.90
2018-07-28T21:09:44.728Z,57.20
2018-07-28T21:12:21.332Z,59.60
2018-07-28T21:14:57.740Z,59.30
2018-07-28T21:17:33.920Z,57.10
2018-07-28T21:20:10.546Z,55.20
2018-07-28T21:22:47.035Z,56.00
2018-07-28T21:25:23.224Z,55.70
2018-07-28T21:27:59.665Z,55.80
2018-07-28T21:30:35.984Z,56.10
2018-07-28T21:33:12.338Z,57.30
2018-07-28T21:35:48.754Z,56.80
2018-07-28T21:38:25.323Z,56.70
2018-07-28T21:41:01.884Z,57.10
2018-07-28T21:43:38.250Z,57.70
2018-07-28T21:46:14.470Z,58.90
2018-07-28T21:48:51.031Z,57.30
2018-07-28T21:51:27.355Z,56.40
2018-07-28T21:54:03.703Z,56.10
2018-07-28T21:56:39.872Z,55.50
2018-07-28T21:59:16.288Z,56.10
2018-07-28T22:01:52.631Z,55.70
2018-07-28T22:04:32.126Z,56.70
2018-07-28T22:07:08.552Z,56.20
2018-07-28T22:09:45.012Z,56.70
2018-07-28T22:12:21.364Z,57.70
2018-07-28T22:14:57.899Z,57.60
2018-07-28T22:17:34.276Z,57.90
2018-07-28T22:20:10.625Z,58.60
2018-07-28T22:22:47.060Z,59.50
2018-07-28T22:25:23.425Z,59.40
2018-07-28T22:28:00.762Z,59.90
2018-07-28T22:30:37.215Z,59.60
2018-07-28T22:33:13.545Z,59.10
2018-07-28T22:35:49.935Z,60.60
2018-07-28T22:38:26.229Z,60.80
2018-07-28T22:41:02.721Z,60.10
2018-07-28T22:43:39.055Z,60.30
2018-07-28T22:46:15.481Z,61.10
2018-07-28T22:48:51.826Z,62.00
2018-07-28T22:51:28.411Z,61.70
2018-07-28T22:54:04.879Z,62.70
2018-07-28T22:56:41.204Z,62.50
2018-07-28T22:59:17.564Z,62.80
2018-07-28T23:01:54.091Z,63.10
2018-07-28T23:04:30.704Z,62.70
2018-07-28T23:07:07.233Z,63.70
2018-07-28T23:09:43.685Z,65.00
2018-07-28T23:12:20.259Z,62.50
2018-07-28T23:14:56.615Z,62.50
2018-07-28T23:17:33.142Z,63.50
2018-07-28T23:20:09.496Z,64.00
2018-07-28T23:22:45.878Z,63.80
2018-07-28T23:25:22.199Z,63.60
2018-07-28T23:27:58.628Z,64.30
2018-07-28T23:30:35.411Z,65.30
2018-07-28T23:33:11.836Z,65.50
2018-07-28T23:35:48.163Z,66.00
2018-07-28T23:38:24.645Z,66.00
2018-07-28T23:41:01.159Z,65.50
2018-07-28T23:43:37.623Z,65.70
2018-07-28T23:46:13.838Z,67.50
2018-07-28T23:48:50.370Z,66.70
2018-07-28T23:51:27.645Z,67.10
2018-07-28T23:54:04.326Z,67.60
2018-07-28T23:56:41.391Z,67.90
2018-07-28T23:59:17.956Z,68.40
